Grifton, NC (28530)

12:52 PM EDT on September 04, 2015 (GMT -0400)
Sunrise Park | | Change Station
CLOSE
Current Station
Personal Weather Station
Location: Ayden, NC
Elevation: 49 ft
Nearby Weather Stations

Elev 49 ft 35.47 °N, 77.41 °W | Updated 10 minutes ago

Clear
Clear
89.4 °F
Feels Like 94 °F
N
3.2
Wind Variable Wind from West

Today
High -- | Low -- °F
--% Chance of Precip.
Yesterday
High -- | Low -- °F
Precip. -- in
6:44 AM 7:32 PM
Waning Gibbous, 58% visible
Pressure 30.00 in
Visibility 10.0 miles
Clouds Clear
Heat Index 94 °F
Dew Point 69 °F
Humidity 51%
Rainfall 0.00 in
Snow Depth Not available.
UV 9 out of 12
Pollen 8.20 out of 12
Air Quality Not available.
Flu Activity Not available.
METAR KISO 041556Z 36003KT 10SM CLR 31/21 A3000 RMK AO2
Pressure 30.00 in
Visibility 10.0 miles
Clouds Clear
Heat Index 94 °F
Dew Point 69 °F
Humidity 51%
Rainfall 0.00 in
Snow Depth Not available.
UV 9 out of 12
Pollen 8.20 out of 12
Air Quality Not available.
Flu Activity Not available.
METAR KISO 041556Z 36003KT 10SM CLR 31/21 A3000 RMK AO2

10-Day Weather Forecast

×

Almanac

Astronomy

Sep. 04, 2015 Rise Set
Actual Time
Civil Twilight
Nautical Twilight
Astronomical Twilight
Moon
Length of Visible Light
Length of Day
Tomorrow will be .
, % of the Moon is Illuminated

Today's Extremes

State Highs State Lows

Community

WunderPhotos

Upload Photos

1,852,226 photos uploaded!

WunderBlogs® & News

Nearby

Air Quality

  Air Quality AQ Index Pollutant
Not available.

Snow Depth

Station Depth Elevation

Earthquake Activity

City Distance Mag. Time & Date
Minimum magnitude displayed is 2.5.

Coastal Water Temperatures

Place Temperature

Stations

Nearby Weather Stations

Station Location Temp. Windchill Dew Point Humidity Wind Precip. Elev Updated Type